Track Кагарманов Анатолий

Time Latitude Longitude Accuracy (66% radius in meters) Altitude (meters) Speed (km/hour) Bearing (degrees) Battery (%) GPS flag
10:32:41 59.743551 30.397371 9 53 0 0 53 1 delete
10:32:30 59.743554 30.397370 10 54 0 0 53 1 delete
10:32:20 59.743556 30.397368 9 54 0 0 53 1 delete
10:32:09 59.743559 30.397368 4 54 0 0 53 1 delete
10:31:59 59.743560 30.397367 3 54 0 0 53 1 delete
10:31:48 59.743555 30.397368 3 53 0 0 53 1 delete
10:31:45 59.743554 30.397340 4 52 0.50249379873276 201 53 1 delete
10:31:38 59.743601 30.397413 3 51 1.8732059001923 216 53 1 delete
10:31:37 59.743629 30.397448 4 50 1.2066897153854 168.60000610352 53 1 delete
10:31:28 59.743713 30.397459 3 49 2.006912946701 176.69999694824 53 1 delete
10:31:27 59.743728 30.397449 3 49 2.6550517082214 182.30000305176 53 1 delete
10:31:23 59.743822 30.397435 4 51 2.7209005355835 197.30000305176 53 1 delete
10:31:19 59.743925 30.397473 3 51 3.0658929347992 194.60000610352 53 1 delete
10:31:17 59.743986 30.397527 3 50 3.1700158119202 185.10000610352 53 1 delete
10:31:16 59.744013 30.397535 3 50 2.960574388504 180.19999694824 53 1 delete
10:31:12 59.744121 30.397557 3 51 2.9601521492004 189.80000305176 53 1 delete
10:31:08 59.744240 30.397585 3 51 3.1501429080963 172 53 1 delete
10:31:07 59.744271 30.397579 3 51 3.3379335403442 175.5 53 1 delete
10:31:05 59.744347 30.397580 3 52 3.1500160694122 166.69999694824 53 1 delete
10:30:58 59.744448 30.397554 3 52 3.754810333252 11.699999809265 53 1 delete
10:30:56 59.744387 30.397530 3 52 3.8318793773651 0.69999998807907 53 1 delete
10:30:55 59.744348 30.397524 3 52 3.2472758293152 11.800000190735 53 1 delete
10:30:48 59.744259 30.397429 3 54 3.9706170558929 26.10000038147 53 1 delete
10:30:46 59.744196 30.397361 3 55 4.1800117492676 27.200000762939 53 1 delete
10:30:45 59.744153 30.397332 3 54 2.7921316623688 30.299999237061 53 1 delete
10:30:39 59.744052 30.397199 3 53 1.6207714080811 51 53 1 delete
10:30:36 59.744024 30.397155 3 53 1.3605881929398 51 53 1 delete
10:30:33 59.743991 30.397067 4 53 2.4529371261597 72.5 53 1 delete
10:30:29 59.743982 30.396887 3 55 3.0358688831329 89.699996948242 53 1 delete
10:30:25 59.743969 30.396690 3 56 2.3612284660339 87.300003051758 53 1 delete
10:30:15 59.744019 30.396501 4 57 3.3603718280792 67.400001525879 53 1 delete
10:30:14 59.744005 30.396441 4 57 3.2639241218567 67.800003051758 53 1 delete
10:30:12 59.743984 30.396301 4 56 3.2903797626495 61.5 53 1 delete
10:30:04 59.743888 30.395951 4 54 1.1221853494644 242.69999694824 53 1 delete
10:30:00 59.743933 30.396096 6 54 2.4807257652283 230.39999389648 53 1 delete
10:29:56 59.744007 30.396255 4 53 2.6454679965973 232.30000305176 53 1 delete
10:29:53 59.744049 30.396367 4 54 2.3325951099396 235.5 53 1 delete
10:29:52 59.744060 30.396412 5 53 2.3200213909149 229.69999694824 53 1 delete
10:29:48 59.744116 30.396555 3 52 3.0565502643585 218.80000305176 53 1 delete
10:29:43 59.744167 30.396657 3 49 0.27658632397652 240.10000610352 53 1 delete
10:29:39 59.744168 30.396707 3 48 2.264972448349 240.19999694824 53 1 delete
10:29:35 59.744235 30.396869 3 52 2.5157504081726 230.69999694824 53 1 delete
10:29:33 59.744269 30.396943 3 53 1.5907859802246 239.80000305176 53 1 delete
10:29:25 59.744266 30.397076 3 52 0.48083260655403 285 53 1 delete
10:29:22 59.744237 30.397129 3 51 0.99824845790863 284.20001220703 53 1 delete
10:29:12 59.744226 30.397143 4 49 0.45177426934242 201.60000610352 53 1 delete
10:29:05 59.744203 30.397201 5 49 2.1208488941193 197.19999694824 53 1 delete
10:29:02 59.744273 30.397228 3 50 2.3604447841644 201.39999389648 53 1 delete
10:29:01 59.744301 30.397260 3 53 2.4916260242462 202.80000305176 53 1 delete
10:28:57 59.744379 30.397360 3 53 2.7136137485504 207 53 1 delete